地図

経路データ

SID SEASON NUMBER BASIN SUBBASIN NAME ISO_TIME NATURE LAT LON WMO_WIND WMO_PRES WMO_AGENCY TRACK_TYPE DIST2LAND LANDFALL IFLAG USA_AGENCY USA_ATCF_ID USA_LAT USA_LON USA_RECORD USA_STATUS USA_WIND USA_PRES USA_SSHS USA_R34_NE USA_R34_SE USA_R34_SW USA_R34_NW USA_R50_NE USA_R50_SE USA_R50_SW USA_R50_NW USA_R64_NE USA_R64_SE USA_R64_SW USA_R64_NW USA_POCI USA_ROCI USA_RMW USA_EYE TOKYO_LAT TOKYO_LON TOKYO_GRADE TOKYO_WIND TOKYO_PRES TOKYO_R50_DIR TOKYO_R50_LONG TOKYO_R50_SHORT TOKYO_R30_DIR TOKYO_R30_LONG TOKYO_R30_SHORT TOKYO_LAND CMA_LAT CMA_LON CMA_CAT CMA_WIND CMA_PRES HKO_LAT HKO_LON HKO_CAT HKO_WIND HKO_PRES NEWDELHI_LAT NEWDELHI_LON NEWDELHI_GRADE NEWDELHI_WIND NEWDELHI_PRES NEWDELHI_CI NEWDELHI_DP NEWDELHI_POCI REUNION_LAT REUNION_LON REUNION_TYPE REUNION_WIND REUNION_PRES REUNION_TNUM REUNION_CI REUNION_RMW REUNION_R34_NE REUNION_R34_SE REUNION_R34_SW REUNION_R34_NW REUNION_R50_NE REUNION_R50_SE REUNION_R50_SW REUNION_R50_NW REUNION_R64_NE REUNION_R64_SE REUNION_R64_SW REUNION_R64_NW BOM_LAT BOM_LON BOM_TYPE BOM_WIND BOM_PRES BOM_TNUM BOM_CI BOM_RMW BOM_R34_NE BOM_R34_SE BOM_R34_SW BOM_R34_NW BOM_R50_NE BOM_R50_SE BOM_R50_SW BOM_R50_NW BOM_R64_NE BOM_R64_SE BOM_R64_SW BOM_R64_NW BOM_ROCI BOM_POCI BOM_EYE BOM_POS_METHOD BOM_PRES_METHOD NADI_LAT NADI_LON NADI_CAT NADI_WIND NADI_PRES WELLINGTON_LAT WELLINGTON_LON WELLINGTON_WIND WELLINGTON_PRES DS824_LAT DS824_LON DS824_STAGE DS824_WIND DS824_PRES TD9636_LAT TD9636_LON TD9636_STAGE TD9636_WIND TD9636_PRES TD9635_LAT TD9635_LON TD9635_WIND TD9635_PRES TD9635_ROCI NEUMANN_LAT NEUMANN_LON NEUMANN_CLASS NEUMANN_WIND NEUMANN_PRES MLC_LAT MLC_LON MLC_CLASS MLC_WIND MLC_PRES USA_GUST BOM_GUST BOM_GUST_PER REUNION_GUST REUNION_GUST_PER USA_SEAHGT USA_SEARAD_NE USA_SEARAD_SE USA_SEARAD_SW USA_SEARAD_NW STORM_SPEED STORM_DIR
1933254N17272 1933 53 NA CS NOT_NAMED 1933-09-10 12:00:00 TS 16.5000 -87.7000 30 hurdat_atl main 72 72 O_____________ hurdat_atl AL131933 16.5000 -87.7000 TD 30 -1 1 43
1933254N17272 1933 53 NA CS NOT_NAMED 1933-09-10 15:00:00 TS 16.5500 -87.6500 main 77 67 P_____________ AL131933 16.5500 -87.6500 TD 30 -1 1 43
1933254N17272 1933 53 NA CS NOT_NAMED 1933-09-10 18:00:00 TS 16.6000 -87.6000 30 hurdat_atl main 77 77 O_____________ hurdat_atl AL131933 16.6000 -87.6000 TD 30 -1 1 43
1933254N17272 1933 53 NA CS NOT_NAMED 1933-09-10 21:00:00 TS 16.6500 -87.5500 main 81 81 P_____________ AL131933 16.6500 -87.5500 TD 32 -1 1 43
1933254N17272 1933 53 NA CS NOT_NAMED 1933-09-11 00:00:00 TS 16.7000 -87.5000 35 hurdat_atl main 81 81 O_____________ hurdat_atl AL131933 16.7000 -87.5000 TS 35 0 1 48
1933254N17272 1933 53 NA CS NOT_NAMED 1933-09-11 03:00:00 TS 16.7425 -87.4425 main 91 88 P_____________ AL131933 16.7425 -87.4425 TS 35 0 1 43
1933254N17272 1933 53 NA CS NOT_NAMED 1933-09-11 06:00:00 TS 16.8000 -87.4000 35 hurdat_atl main 88 85 O_____________ hurdat_atl AL131933 16.8000 -87.4000 TS 35 0 2 12
1933254N17272 1933 53 NA CS NOT_NAMED 1933-09-11 09:00:00 TS 16.8925 -87.4000 main 85 85 P_____________ AL131933 16.8925 -87.4000 TS 35 0 2 8
1933254N17272 1933 53 NA CS NOT_NAMED 1933-09-11 12:00:00 TS 17.0000 -87.4000 35 hurdat_atl main 85 85 O_____________ hurdat_atl AL131933 17.0000 -87.4000 TS 35 0 2 13
1933254N17272 1933 53 NA CS NOT_NAMED 1933-09-11 15:00:00 TS 17.1000 -87.3575 main 85 85 P_____________ AL131933 17.1000 -87.3575 TS 37 0 2 27
1933254N17272 1933 53 NA CS NOT_NAMED 1933-09-11 18:00:00 TS 17.2000 -87.3000 40 hurdat_atl main 98 98 O_____________ hurdat_atl AL131933 17.2000 -87.3000 TS 40 0 2 28
1933254N17272 1933 53 NA CS NOT_NAMED 1933-09-11 21:00:00 TS 17.3000 -87.2500 main 108 106 P_____________ AL131933 17.3000 -87.2500 TS 42 0 2 27
1933254N17272 1933 53 NA CS NOT_NAMED 1933-09-12 00:00:00 TS 17.4000 -87.2000 45 hurdat_atl main 106 100 O_____________ hurdat_atl AL131933 17.4000 -87.2000 TS 45 0 2 27
1933254N17272 1933 53 NA CS NOT_NAMED 1933-09-12 03:00:00 TS 17.5000 -87.1500 main 107 99 P_____________ AL131933 17.5000 -87.1500 TS 50 0 2 27
1933254N17272 1933 53 NA CS NOT_NAMED 1933-09-12 06:00:00 TS 17.6000 -87.1000 55 hurdat_atl main 99 92 O_____________ hurdat_atl AL131933 17.6000 -87.1000 TS 55 0 2 33
1933254N17272 1933 53 NA CS NOT_NAMED 1933-09-12 09:00:00 TS 17.7000 -87.0200 main 101 95 P_____________ AL131933 17.7000 -87.0200 TS 57 0 2 27
1933254N17272 1933 53 NA CS NOT_NAMED 1933-09-12 12:00:00 TS 17.8000 -87.0000 60 992 hurdat_atl main 95 81 O_____________ hurdat_atl AL131933 17.8000 -87.0000 TS 60 992 0 2 335
1933254N17272 1933 53 NA CS NOT_NAMED 1933-09-12 15:00:00 TS 17.8925 -87.1125 main 81 57 P_____________ AL131933 17.8925 -87.1125 TS 60 0 3 305
1933254N17272 1933 53 NA CS NOT_NAMED 1933-09-12 18:00:00 TS 18.0000 -87.3000 60 hurdat_atl main 57 33 O_____________ hurdat_atl AL131933 18.0000 -87.3000 TS 60 0 4 306
1933254N17272 1933 53 NA CS NOT_NAMED 1933-09-12 21:00:00 TS 18.1500 -87.4925 main 31 10 P_____________ AL131933 18.1500 -87.4925 TS 62 0 5 308
1933254N17272 1933 53 NA CS NOT_NAMED 1933-09-13 00:00:00 TS 18.3000 -87.7000 65 hurdat_atl main 10 0 O_____________ hurdat_atl AL131933 18.3000 -87.7000 HU 65 1 5 303
1933254N17272 1933 53 NA CS NOT_NAMED 1933-09-13 03:00:00 TS 18.4000 -87.8926 main 0 0 P_____________ AL131933 18.4000 -87.8926 HU 60 0 4 298
1933254N17272 1933 53 NA CS NOT_NAMED 1933-09-13 06:00:00 TS 18.5000 -88.1000 55 hurdat_atl main 0 0 O_____________ hurdat_atl AL131933 18.5000 -88.1000 TS 55 0 5 300
1933254N17272 1933 53 NA NA NOT_NAMED 1933-09-13 09:00:00 TS 18.6349 -88.3276 main 0 0 P_____________ AL131933 18.6349 -88.3276 TS 52 0 6 302
1933254N17272 1933 53 NA NA NOT_NAMED 1933-09-13 12:00:00 TS 18.8000 -88.6000 50 hurdat_atl main 0 0 O_____________ hurdat_atl AL131933 18.8000 -88.6000 TS 50 0 7 301
1933254N17272 1933 53 NA NA NOT_NAMED 1933-09-13 15:00:00 TS 18.9774 -88.9202 main 0 0 P_____________ AL131933 18.9774 -88.9202 TS 47 0 8 301
1933254N17272 1933 53 NA NA NOT_NAMED 1933-09-13 18:00:00 TS 19.2000 -89.3000 45 hurdat_atl main 0 0 O_____________ hurdat_atl AL131933 19.2000 -89.3000 TS 45 0 9 304
1933254N17272 1933 53 NA NA NOT_NAMED 1933-09-13 21:00:00 TS 19.4849 -89.7275 main 0 0 P_____________ AL131933 19.4849 -89.7275 TS 42 0 10 305
1933254N17272 1933 53 NA NA NOT_NAMED 1933-09-14 00:00:00 TS 19.8000 -90.2000 40 hurdat_atl main 0 0 O_____________ hurdat_atl AL131933 19.8000 -90.2000 TS 40 0 11 304
1933254N17272 1933 53 NA GM NOT_NAMED 1933-09-14 03:00:00 TS 20.0999 -90.6852 main 20 20 P_____________ AL131933 20.0999 -90.6852 TS 47 0 11 303
1933254N17272 1933 53 NA GM NOT_NAMED 1933-09-14 06:00:00 TS 20.4000 -91.2000 55 hurdat_atl main 72 72 O_____________ hurdat_atl AL131933 20.4000 -91.2000 TS 55 0 12 301
1933254N17272 1933 53 NA GM NOT_NAMED 1933-09-14 09:00:00 TS 20.6998 -91.7352 main 126 126 P_____________ AL131933 20.6998 -91.7352 TS 57 0 12 300
1933254N17272 1933 53 NA GM NOT_NAMED 1933-09-14 12:00:00 TS 21.0000 -92.3000 60 hurdat_atl main 195 195 O_____________ hurdat_atl AL131933 21.0000 -92.3000 TS 60 0 12 300
1933254N17272 1933 53 NA GM NOT_NAMED 1933-09-14 15:00:00 TS 21.3073 -92.8852 main 264 264 P_____________ AL131933 21.3073 -92.8852 TS 62 0 13 298
1933254N17272 1933 53 NA GM NOT_NAMED 1933-09-14 18:00:00 TS 21.6000 -93.5000 65 hurdat_atl main 333 327 O_____________ hurdat_atl AL131933 21.6000 -93.5000 HU 65 1 13 296
1933254N17272 1933 53 NA GM NOT_NAMED 1933-09-14 21:00:00 TS 21.8798 -94.1425 main 327 263 P_____________ AL131933 21.8798 -94.1425 HU 70 1 13 293
1933254N17272 1933 53 NA GM NOT_NAMED 1933-09-15 00:00:00 TS 22.1000 -94.8000 75 hurdat_atl main 263 207 O_____________ hurdat_atl AL131933 22.1000 -94.8000 HU 75 1 13 287
1933254N17272 1933 53 NA GM NOT_NAMED 1933-09-15 03:00:00 TS 22.2371 -95.4427 main 207 146 P_____________ AL131933 22.2371 -95.4427 HU 80 1 12 279
1933254N17272 1933 53 NA GM NOT_NAMED 1933-09-15 06:00:00 TS 22.3000 -96.1000 85 hurdat_atl main 146 98 O_____________ hurdat_atl AL131933 22.3000 -96.1000 HU 85 2 12 274
1933254N17272 1933 53 NA GM NOT_NAMED 1933-09-15 09:00:00 TS 22.3297 -96.7850 main 91 30 P_____________ AL131933 22.3297 -96.7850 HU 90 2 13 270
1933254N17272 1933 53 NA GM NOT_NAMED 1933-09-15 12:00:00 TS 22.3000 -97.5000 95 960 hurdat_atl main 30 0 O_____________ hurdat_atl AL131933 22.3000 -97.5000 HU 95 960 2 14 265
1933254N17272 1933 53 NA NA NOT_NAMED 1933-09-15 15:00:00 TS 22.2223 -98.2425 main 0 0 P_____________ AL131933 22.2223 -98.2425 HU 75 1 14 262
1933254N17272 1933 53 NA NA NOT_NAMED 1933-09-15 18:00:00 TS 22.1000 -99.0000 55 hurdat_atl main 0 0 O_____________ hurdat_atl AL131933 22.1000 -99.0000 TS 55 0 14 259
1933254N17272 1933 53 NA NA NOT_NAMED 1933-09-15 21:00:00 TS 21.9556 -99.7528 main 0 0 P_____________ AL131933 21.9556 -99.7528 TS 42 0 14 258
1933254N17272 1933 53 NA NA NOT_NAMED 1933-09-16 00:00:00 TS 21.8000 -100.500 30 hurdat_atl main 0 O_____________ hurdat_atl AL131933 21.8000 -100.500 TD 30 -1 14 257

IBTrACS Databaseについて

本データベースは、米国NOAAが公開する1842年以降の世界の熱帯低気圧のベストトラックデータアーカイブInternational Best Track Archive for Climate Stewardship (IBTrACS)を、ウェブで閲覧しやすい形式に変換したものです。

最終更新日:2021-12-06